createdAt,value
2023-06-04T00:03:34.843Z,2.40
2023-06-04T00:07:36.303Z,3.57
2023-06-04T00:11:37.941Z,3.07
2023-06-04T00:15:39.347Z,3.87
2023-06-04T00:19:41.750Z,3.70
2023-06-04T00:23:43.404Z,4.00
2023-06-04T00:27:44.886Z,3.13
2023-06-04T00:31:46.313Z,3.87
2023-06-04T00:35:47.795Z,3.73
2023-06-04T00:39:49.247Z,3.53
2023-06-04T00:43:57.074Z,3.67
2023-06-04T00:47:59.221Z,2.87
2023-06-04T00:52:00.673Z,2.67
2023-06-04T00:56:02.056Z,2.70
2023-06-04T01:00:05.466Z,2.60
2023-06-04T01:04:13.304Z,2.90
2023-06-04T01:08:16.302Z,2.90
2023-06-04T01:12:17.709Z,3.43
2023-06-04T01:16:19.274Z,3.20
2023-06-04T01:20:48.077Z,2.90
2023-06-04T01:24:56.608Z,3.30
2023-06-04T01:28:59.589Z,2.37
2023-06-04T01:33:02.088Z,2.47
2023-06-04T01:37:03.528Z,2.93
2023-06-04T01:41:05.124Z,3.27
2023-06-04T01:45:07.098Z,3.63
2023-06-04T01:49:08.560Z,3.87
2023-06-04T01:53:09.971Z,3.13
2023-06-04T01:57:11.346Z,3.53
2023-06-04T02:01:12.933Z,3.70
2023-06-04T02:05:14.602Z,3.63
2023-06-04T02:09:16.042Z,3.10
2023-06-04T02:13:17.493Z,2.80
2023-06-04T02:17:18.849Z,2.53
2023-06-04T02:21:20.342Z,2.70
2023-06-04T02:25:22.639Z,2.80
2023-06-04T02:29:23.918Z,2.90
2023-06-04T02:33:25.866Z,4.20
2023-06-04T02:37:27.172Z,2.93
2023-06-04T02:41:28.545Z,2.63
2023-06-04T02:45:29.975Z,2.87
2023-06-04T02:49:31.872Z,3.00
2023-06-04T02:53:33.310Z,2.97
2023-06-04T02:57:34.686Z,2.87
2023-06-04T03:01:36.559Z,2.53
2023-06-04T03:05:40.620Z,3.23
2023-06-04T03:09:41.935Z,3.23
2023-06-04T03:13:43.463Z,3.77
2023-06-04T03:17:45.263Z,4.10
2023-06-04T03:21:47.776Z,3.60
2023-06-04T03:25:49.228Z,3.83
2023-06-04T03:29:50.925Z,1.90
2023-06-04T03:33:52.395Z,1.87
2023-06-04T03:37:53.802Z,1.50
2023-06-04T03:41:55.945Z,2.07
2023-06-04T03:45:57.311Z,1.57
2023-06-04T03:49:58.632Z,1.80
2023-06-04T03:54:00.131Z,1.57
2023-06-04T03:58:01.701Z,1.50
2023-06-04T04:02:03.083Z,1.90
2023-06-04T04:06:04.468Z,1.40
2023-06-04T04:10:06.983Z,1.60
2023-06-04T04:14:08.301Z,1.70
2023-06-04T04:18:11.615Z,1.90
2023-06-04T04:22:13.969Z,1.60
2023-06-04T04:26:17.671Z,1.50
2023-06-04T04:30:20.530Z,1.90
2023-06-04T04:34:22.050Z,1.87
2023-06-04T04:38:24.824Z,1.50
2023-06-04T04:42:26.283Z,1.80
2023-06-04T04:46:27.622Z,2.07
2023-06-04T04:50:28.977Z,1.60
2023-06-04T04:54:30.397Z,1.63
2023-06-04T04:58:31.819Z,1.50
2023-06-04T05:02:33.271Z,1.60
2023-06-04T05:06:34.633Z,1.40
2023-06-04T05:10:36.906Z,1.57
2023-06-04T05:14:38.352Z,1.93
2023-06-04T05:18:42.618Z,1.60
2023-06-04T05:22:44.532Z,1.30
2023-06-04T05:26:45.887Z,1.57
2023-06-04T05:30:49.717Z,1.70
2023-06-04T05:34:51.029Z,1.42
2023-06-04T05:38:58.014Z,1.60
2023-06-04T05:42:59.370Z,1.30
2023-06-04T05:47:00.911Z,1.40
2023-06-04T05:51:02.235Z,1.30
2023-06-04T05:55:03.813Z,1.40
2023-06-04T05:59:05.194Z,1.40
2023-06-04T06:03:07.693Z,1.50
2023-06-04T06:07:09.551Z,1.83
2023-06-04T06:11:11.461Z,1.80
2023-06-04T06:15:13.393Z,2.85
2023-06-04T06:19:14.702Z,1.98
2023-06-04T06:23:17.619Z,2.80
2023-06-04T06:27:19.141Z,2.95
2023-06-04T06:31:21.482Z,2.38
2023-06-04T06:35:22.856Z,1.52
2023-06-04T06:39:24.294Z,1.98
2023-06-04T06:43:25.692Z,1.95
2023-06-04T06:47:27.035Z,2.10
2023-06-04T06:51:28.381Z,2.17
2023-06-04T06:55:29.733Z,2.15
2023-06-04T06:59:32.351Z,2.08
2023-06-04T07:03:33.940Z,2.20
2023-06-04T07:07:35.342Z,1.90
2023-06-04T07:11:37.010Z,2.20
2023-06-04T07:15:38.338Z,2.03
2023-06-04T07:19:39.704Z,1.90
2023-06-04T07:23:41.530Z,2.10
2023-06-04T07:27:42.922Z,1.77
2023-06-04T07:31:44.335Z,2.03
2023-06-04T07:35:45.686Z,2.15
2023-06-04T07:39:47.029Z,1.90
2023-06-04T07:43:48.320Z,1.80
2023-06-04T07:47:49.701Z,1.70
2023-06-04T07:51:51.025Z,1.80
2023-06-04T07:55:52.852Z,1.73
2023-06-04T07:59:54.203Z,1.70
2023-06-04T08:03:56.977Z,1.77
2023-06-04T08:07:58.441Z,1.60
2023-06-04T08:12:01.056Z,1.75
2023-06-04T08:16:02.382Z,1.77
2023-06-04T08:20:07.433Z,1.88
2023-06-04T08:24:10.037Z,1.70
2023-06-04T08:28:11.442Z,1.70
2023-06-04T08:32:12.841Z,1.33
2023-06-04T08:36:14.658Z,1.65
2023-06-04T08:40:16.048Z,1.42
2023-06-04T08:44:18.372Z,1.42
2023-06-04T08:48:31.224Z,1.50
2023-06-04T08:52:37.250Z,1.45
2023-06-04T08:56:38.592Z,1.30
2023-06-04T09:00:40.119Z,1.48
2023-06-04T09:04:41.628Z,1.38
2023-06-04T09:08:51.152Z,1.40
2023-06-04T09:13:03.718Z,1.77
2023-06-04T09:17:05.086Z,1.17
2023-06-04T09:21:09.594Z,1.35
2023-06-04T09:25:21.061Z,1.60
2023-06-04T09:29:22.446Z,1.65
2023-06-04T09:33:24.506Z,1.10
2023-06-04T09:37:27.780Z,1.17
2023-06-04T09:41:29.389Z,1.30
2023-06-04T09:45:36.321Z,1.17
2023-06-04T09:49:44.876Z,1.30
2023-06-04T09:53:56.992Z,1.50
2023-06-04T09:58:00.242Z,1.08
2023-06-04T10:02:02.712Z,1.55
2023-06-04T10:06:06.228Z,1.60
2023-06-04T10:10:12.124Z,1.50
2023-06-04T10:14:26.354Z,1.92
2023-06-04T10:18:31.749Z,1.10
2023-06-04T10:22:34.077Z,1.02
2023-06-04T10:26:36.484Z,1.02
2023-06-04T10:30:37.858Z,1.20
2023-06-04T10:34:39.345Z,1.70
2023-06-04T10:38:46.539Z,1.50
2023-06-04T10:42:48.209Z,0.95
2023-06-04T10:46:49.557Z,1.10
2023-06-04T10:50:52.748Z,1.30
2023-06-04T10:55:05.756Z,1.38
2023-06-04T10:59:17.927Z,1.63
2023-06-04T11:03:19.492Z,1.45
2023-06-04T11:07:21.073Z,1.30
2023-06-04T11:11:22.425Z,1.25
2023-06-04T11:15:23.826Z,1.63
2023-06-04T11:19:25.283Z,1.25
2023-06-04T11:23:26.768Z,1.42
2023-06-04T11:27:36.307Z,1.08
2023-06-04T11:31:46.390Z,1.58
2023-06-04T11:35:47.786Z,1.20
2023-06-04T11:39:49.139Z,1.30
2023-06-04T11:43:50.786Z,1.20
2023-06-04T11:47:56.750Z,1.25
2023-06-04T11:51:58.624Z,1.40
2023-06-04T11:56:00.249Z,1.00
2023-06-04T12:00:11.749Z,1.45
2023-06-04T12:04:17.586Z,1.52
2023-06-04T12:08:19.329Z,1.40
2023-06-04T12:12:26.252Z,1.60
2023-06-04T12:16:28.389Z,1.60
2023-06-04T12:20:38.096Z,1.40
2023-06-04T12:25:00.047Z,1.45
2023-06-04T12:29:02.641Z,1.27
2023-06-04T12:33:04.056Z,1.33
2023-06-04T12:37:06.989Z,1.17
2023-06-04T12:41:08.315Z,1.60
2023-06-04T12:45:11.374Z,1.50
2023-06-04T12:49:13.288Z,1.50
2023-06-04T12:53:14.588Z,1.70
2023-06-04T12:57:16.111Z,1.67
2023-06-04T13:01:17.487Z,1.50
2023-06-04T13:05:18.889Z,1.20
2023-06-04T13:09:21.564Z,1.45
2023-06-04T13:13:23.014Z,1.70
2023-06-04T13:17:24.377Z,1.40
2023-06-04T13:21:25.848Z,1.40
2023-06-04T13:25:29.378Z,1.40
2023-06-04T13:29:34.556Z,1.40
2023-06-04T13:33:36.254Z,1.67
2023-06-04T13:37:37.590Z,1.50
2023-06-04T13:41:39.174Z,1.58
2023-06-04T13:45:41.197Z,1.25
2023-06-04T13:49:42.493Z,1.75
2023-06-04T13:53:43.830Z,1.60
2023-06-04T13:57:45.141Z,1.52
2023-06-04T14:01:46.618Z,1.52
2023-06-04T14:05:48.066Z,1.50
2023-06-04T14:09:55.207Z,1.80
2023-06-04T14:13:57.071Z,1.75
2023-06-04T14:17:58.438Z,1.73
2023-06-04T14:21:59.925Z,1.70
2023-06-04T14:26:01.359Z,1.67
2023-06-04T14:30:04.468Z,2.10
2023-06-04T14:34:07.410Z,1.80
2023-06-04T14:38:08.741Z,1.70
2023-06-04T14:42:10.064Z,1.42
2023-06-04T14:46:11.753Z,2.03
2023-06-04T14:50:13.142Z,1.92
2023-06-04T14:54:14.532Z,2.00
2023-06-04T14:58:16.519Z,2.25
2023-06-04T15:02:20.421Z,1.80
2023-06-04T15:06:22.028Z,1.77
2023-06-04T15:10:23.436Z,1.90
2023-06-04T15:14:24.752Z,1.70
2023-06-04T15:18:26.170Z,1.80
2023-06-04T15:22:28.408Z,1.75
2023-06-04T15:26:29.903Z,1.90
2023-06-04T15:30:31.434Z,2.13
2023-06-04T15:34:32.755Z,1.63
2023-06-04T15:38:34.479Z,1.50
2023-06-04T15:42:35.785Z,1.80
2023-06-04T15:46:37.205Z,1.48
2023-06-04T15:50:38.595Z,1.38
2023-06-04T15:54:46.394Z,1.70
2023-06-04T15:58:48.162Z,2.30
2023-06-04T16:02:49.725Z,1.90
2023-06-04T16:06:51.120Z,2.10
2023-06-04T16:10:52.497Z,1.70
2023-06-04T16:14:53.835Z,1.80
2023-06-04T16:18:55.264Z,1.80
2023-06-04T16:22:56.644Z,1.85
2023-06-04T16:26:58.035Z,2.20
2023-06-04T16:30:59.468Z,1.80
2023-06-04T16:35:03.069Z,2.20
2023-06-04T16:39:04.980Z,1.90
2023-06-04T16:43:07.343Z,1.92
2023-06-04T16:47:09.265Z,1.80
2023-06-04T16:51:11.742Z,1.90
2023-06-04T16:55:17.218Z,1.98
2023-06-04T16:59:18.552Z,2.30
2023-06-04T17:03:20.105Z,1.70
2023-06-04T17:07:21.974Z,1.90
2023-06-04T17:11:23.321Z,1.85
2023-06-04T17:15:24.643Z,2.10
2023-06-04T17:19:26.064Z,2.13
2023-06-04T17:23:27.638Z,1.52
2023-06-04T17:27:29.041Z,2.22
2023-06-04T17:31:31.514Z,2.10
2023-06-04T17:35:32.889Z,2.00
2023-06-04T17:39:34.940Z,2.30
2023-06-04T17:43:37.121Z,1.90
2023-06-04T17:47:38.902Z,2.38
2023-06-04T17:51:40.416Z,2.30
2023-06-04T17:55:41.781Z,1.70
2023-06-04T17:59:43.079Z,1.77
2023-06-04T18:03:44.560Z,1.63
2023-06-04T18:07:46.419Z,1.90
2023-06-04T18:11:47.795Z,1.85
2023-06-04T18:15:49.375Z,2.20
2023-06-04T18:19:52.316Z,1.70
2023-06-04T18:23:54.228Z,1.90
2023-06-04T18:27:55.783Z,1.67
2023-06-04T18:31:57.223Z,2.00
2023-06-04T18:35:58.705Z,2.05
2023-06-04T18:40:00.024Z,2.30
2023-06-04T18:44:01.360Z,2.40
2023-06-04T18:48:02.946Z,3.88
2023-06-04T18:52:04.638Z,2.10
2023-06-04T18:56:06.091Z,2.40
2023-06-04T19:00:09.523Z,2.88
2023-06-04T19:04:13.517Z,2.72
2023-06-04T19:08:14.950Z,2.00
2023-06-04T19:12:16.257Z,2.50
2023-06-04T19:16:17.775Z,2.50
2023-06-04T19:20:19.218Z,2.40
2023-06-04T19:24:23.657Z,2.35
2023-06-04T19:28:24.961Z,2.30
2023-06-04T19:32:29.071Z,2.30
2023-06-04T19:36:30.587Z,2.40
2023-06-04T19:40:32.029Z,2.35
2023-06-04T19:44:33.477Z,2.70
2023-06-04T19:48:34.809Z,2.50
2023-06-04T19:52:36.292Z,2.63
2023-06-04T19:56:38.802Z,2.20
2023-06-04T20:00:40.190Z,2.25
2023-06-04T20:04:42.091Z,2.10
2023-06-04T20:08:44.246Z,2.42
2023-06-04T20:12:46.009Z,2.25
2023-06-04T20:16:47.443Z,1.92
2023-06-04T20:20:53.194Z,2.08
2023-06-04T20:24:54.631Z,1.75
2023-06-04T20:28:59.410Z,2.35
2023-06-04T20:33:00.894Z,2.40
2023-06-04T20:37:04.108Z,2.20
2023-06-04T20:41:05.674Z,1.77
2023-06-04T20:45:07.701Z,2.00
2023-06-04T20:49:09.128Z,2.10
2023-06-04T20:53:10.504Z,1.83
2023-06-04T20:57:11.792Z,1.95
2023-06-04T21:01:13.280Z,2.00
2023-06-04T21:05:14.768Z,2.10
2023-06-04T21:09:16.192Z,1.80
2023-06-04T21:13:17.820Z,1.92
2023-06-04T21:17:19.447Z,1.95
2023-06-04T21:21:20.945Z,2.28
2023-06-04T21:25:22.382Z,2.40
2023-06-04T21:29:24.088Z,2.17
2023-06-04T21:33:25.648Z,1.60
2023-06-04T21:37:27.034Z,2.38
2023-06-04T21:41:28.400Z,2.30
2023-06-04T21:45:29.730Z,2.42
2023-06-04T21:49:31.603Z,2.38
2023-06-04T21:53:32.977Z,2.30
2023-06-04T21:57:34.356Z,2.70
2023-06-04T22:01:35.922Z,2.38
2023-06-04T22:05:37.376Z,2.70
2023-06-04T22:09:38.726Z,2.22
2023-06-04T22:13:40.133Z,1.90
2023-06-04T22:17:41.779Z,1.90
2023-06-04T22:21:43.117Z,1.73
2023-06-04T22:25:44.570Z,1.58
2023-06-04T22:29:46.016Z,1.73
2023-06-04T22:33:47.365Z,1.77
2023-06-04T22:37:48.711Z,1.88
2023-06-04T22:41:50.102Z,1.70
2023-06-04T22:45:51.554Z,1.88
2023-06-04T22:49:52.953Z,1.70
2023-06-04T22:53:56.107Z,1.67
2023-06-04T22:58:00.131Z,1.50
2023-06-04T23:02:01.491Z,1.60
2023-06-04T23:06:02.871Z,1.98
2023-06-04T23:10:06.993Z,1.80
2023-06-04T23:14:08.385Z,1.50
2023-06-04T23:18:10.000Z,1.83
2023-06-04T23:22:11.476Z,1.75
2023-06-04T23:26:12.875Z,1.80
2023-06-04T23:30:14.814Z,1.87
2023-06-04T23:34:16.671Z,1.67
2023-06-04T23:38:18.021Z,2.03
2023-06-04T23:42:19.409Z,1.80
2023-06-04T23:46:21.652Z,1.73
2023-06-04T23:50:23.032Z,1.57
2023-06-04T23:54:24.465Z,1.73
2023-06-04T23:58:26.013Z,1.90
